»·PEaware :: N2102W KTOA-KOXR

N2102W :: KTOA-KOXR

FLIGHT INFORMATION

Flight Status: Arrived
Operator: Privately registered:
United States
More flights under this callsign
Pilot: Eric G. (5941)
Aircraft: BEECH AIRCRAFT PREMIER
(PRM1)
More flights by this aircraft type
Origin: KTOA Zamperini
United States
Destination: KOXR Oxnard
United States
More flights between these airports :: More routes between these airports
Route: +LAX VTU
File this flight plan on PilotEdge
Remarks:
Altitude:
(Current/Filed)
6,000ft
Speed:
(Current/Filed)
200kts
Departed: 07-Jan-18 03:05 PM
Arrived: 07-Jan-18 03:29 PM
Distance/Time
Traveled:
50nm/0:24
Distance/Time
To Go:
Arrived

Flight Plot

Page will automatically refresh every two minutes.


Map Options




Map Legend


Flown Route
Filed Route
Departure Airport
Arrival Airport
Navaid (VOR, NDB)
Fix

Horizontal Profiles

Position Reports

Time Latitude Longitude Heading Altitude Ground
Speed
07-Jan-18 14:51 33.801534 -118.341338 219 108ft 0kts
07-Jan-18 14:52 33.801534 -118.341338 219 108ft 0kts
07-Jan-18 14:53 33.801534 -118.341338 219 108ft 0kts
07-Jan-18 14:54 33.801534 -118.341338 219 108ft 0kts
07-Jan-18 14:55 33.801534 -118.341338 219 108ft 0kts
07-Jan-18 14:56 33.801534 -118.341338 219 108ft 0kts
07-Jan-18 14:57 33.801534 -118.341338 219 108ft 0kts
07-Jan-18 14:58 33.801534 -118.341338 219 108ft 0kts
07-Jan-18 14:59 33.801534 -118.341338 219 108ft 0kts
07-Jan-18 15:00 33.801592 -118.341280 219 108ft 0kts
07-Jan-18 15:01 33.801426 -118.341166 79 108ft 0kts
07-Jan-18 15:02 33.801426 -118.341164 79 108ft 0kts
07-Jan-18 15:03 33.801426 -118.341162 79 108ft 0kts
07-Jan-18 15:04 33.801154 -118.339544 45 108ft 8kts
07-Jan-18 15:05 33.799659 -118.336929 127 108ft 11kts
07-Jan-18 15:06 33.798057 -118.334338 70 108ft 5kts
07-Jan-18 15:07 33.798578 -118.333814 34 108ft 0kts
07-Jan-18 15:08 33.798579 -118.333813 34 108ft 0kts
07-Jan-18 15:09 33.799113 -118.333317 36 108ft 0kts
07-Jan-18 15:10 33.800077 -118.333643 309 108ft 39kts
07-Jan-18 15:11 33.824261 -118.373290 303 1318ft 208kts
07-Jan-18 15:12 33.855903 -118.426194 309 2293ft 207kts
07-Jan-18 15:13 33.839025 -118.467533 181 2892ft 200kts
07-Jan-18 15:14 33.786464 -118.465719 184 2999ft 188kts
07-Jan-18 15:15 33.754346 -118.488591 260 4021ft 138kts
07-Jan-18 15:16 33.746091 -118.554197 261 5543ft 226kts
07-Jan-18 15:17 33.738805 -118.625521 282 5984ft 217kts
07-Jan-18 15:18 33.782944 -118.678537 322 5990ft 217kts
07-Jan-18 15:19 33.830833 -118.722409 322 5990ft 220kts
07-Jan-18 15:20 33.879840 -118.767134 322 5991ft 220kts
07-Jan-18 15:21 33.927838 -118.812870 318 5993ft 220kts
07-Jan-18 15:22 33.973991 -118.861253 318 5996ft 220kts
07-Jan-18 15:23 34.016602 -118.905960 318 5996ft 217kts
07-Jan-18 15:24 34.067699 -118.919625 37 5308ft 211kts
07-Jan-18 15:25 34.104587 -118.879952 42 4192ft 204kts
07-Jan-18 15:26 34.144055 -118.835994 42 4085ft 186kts
07-Jan-18 15:27 34.180905 -118.833374 297 4106ft 172kts
07-Jan-18 15:28 34.199029 -118.888610 281 3397ft 171kts
07-Jan-18 15:29 34.195767 -118.936682 272 3184ft 151kts
07-Jan-18 15:30 34.199427 -118.991423 272 3439ft 148kts
07-Jan-18 15:31 34.197951 -119.041402 274 2665ft 146kts
07-Jan-18 15:32 34.200085 -119.090361 270 1894ft 134kts
07-Jan-18 15:33 34.200377 -119.133934 269 1190ft 125kts
07-Jan-18 15:34 34.200600 -119.174032 271 439ft 116kts
07-Jan-18 15:35 34.200796 -119.207691 270 48ft 39kts
07-Jan-18 15:36 34.199576 -119.212766 354 48ft 3kts
07-Jan-18 15:37 34.199387 -119.212763 358 48ft 0kts
07-Jan-18 15:38 34.199389 -119.212763 358 48ft 0kts
07-Jan-18 15:39 34.199391 -119.212763 358 48ft 0kts
07-Jan-18 15:40 34.199393 -119.212763 358 48ft 0kts
07-Jan-18 15:41 34.199395 -119.212763 358 48ft 0kts
07-Jan-18 15:42 34.199397 -119.212763 358 48ft 0kts
07-Jan-18 15:43 34.199399 -119.212763 358 48ft 0kts
07-Jan-18 15:44 34.199401 -119.212763 358 48ft 0kts
07-Jan-18 15:45 34.199403 -119.212763 358 48ft 0kts
07-Jan-18 15:46 34.199405 -119.212763 358 48ft 0kts
07-Jan-18 15:47 34.199407 -119.212763 358 48ft 0kts
07-Jan-18 15:48 34.199409 -119.212763 358 48ft 0kts
07-Jan-18 15:49 34.199410 -119.212763 358 48ft 0kts

Navigation Log

Ident Type
Flight plan parsing failed, navigation log unavailable